Time;durP1;ratioP1;P1;durP2;ratioP2;P2;SDS_P1;SDS_P2;PMS_P1;PMS_P2;Temp;Humidity;BMP_temperature;BMP_pressure;BME280_temperature;BME280_humidity;BME280_pressure;Samples;Min_cycle;Max_cycle;Signal;HPM_P1;HPM_P2
2021/03/26 00:02:17;;;;;;;20.80;18.65;;;;;;;;;;5005745;28;20243;-85
2021/03/26 00:04:44;;;;;;;24.52;17.77;;;;;;;;;;5006889;28;20204;-85
2021/03/26 00:07:11;;;;;;;24.83;18.52;;;;;;;;;;5003780;28;20294;-85
2021/03/26 00:09:39;;;;;;;22.08;18.27;;;;;;;;;;5004488;28;20208;-84
2021/03/26 00:12:12;;;;;;;22.15;19.17;;;;;;;;;;5002298;28;20199;-84
2021/03/26 00:14:41;;;;;;;24.25;19.33;;;;;;;;;;5003796;28;20256;-84
2021/03/26 00:17:08;;;;;;;21.13;17.80;;;;;;;;;;5002647;28;20294;-84
2021/03/26 00:19:35;;;;;;;21.17;18.38;;;;;;;;;;5002229;28;20628;-85
2021/03/26 00:22:03;;;;;;;24.60;19.58;;;;;;;;;;5002666;28;20295;-84
2021/03/26 00:24:30;;;;;;;22.17;19.77;;;;;;;;;;5002909;28;20200;-84
2021/03/26 00:26:57;;;;;;;23.35;15.63;;;;;;;;;;5001972;28;20215;-86
2021/03/26 00:29:25;;;;;;;24.35;19.15;;;;;;;;;;5002632;28;20710;-85
2021/03/26 00:31:54;;;;;;;21.70;19.25;;;;;;;;;;5002179;28;20195;-84
2021/03/26 00:34:21;;;;;;;22.13;19.33;;;;;;;;;;5002889;28;20631;-83
2021/03/26 00:36:49;;;;;;;22.80;19.08;;;;;;;;;;5002603;28;20218;-88
2021/03/26 00:39:17;;;;;;;23.55;18.17;;;;;;;;;;5002250;28;20278;-85
2021/03/26 00:41:44;;;;;;;23.90;21.10;;;;;;;;;;5004998;28;20227;-85
2021/03/26 00:44:14;;;;;;;25.88;22.35;;;;;;;;;;5006123;28;20226;-83
2021/03/26 00:46:44;;;;;;;28.05;22.48;;;;;;;;;;5004900;28;20220;-84
2021/03/26 00:49:12;;;;;;;29.95;23.00;;;;;;;;;;5005225;28;20207;-84
2021/03/26 00:51:41;;;;;;;25.83;21.60;;;;;;;;;;5006344;28;20709;-85
2021/03/26 00:54:08;;;;;;;28.65;22.77;;;;;;;;;;5005557;28;21087;-83
2021/03/26 00:56:36;;;;;;;28.42;22.48;;;;;;;;;;5005732;28;20200;-85
2021/03/26 00:59:04;;;;;;;28.67;22.52;;;;;;;;;;5006825;28;20215;-85
2021/03/26 01:01:31;;;;;;;27.27;21.65;;;;;;;;;;5005629;28;20287;-84
2021/03/26 01:03:59;;;;;;;29.77;24.10;;;;;;;;;;5006170;28;20246;-85
2021/03/26 01:06:29;;;;;;;29.67;22.75;;;;;;;;;;5007168;28;20243;-85
2021/03/26 01:08:56;;;;;;;31.25;24.55;;;;;;;;;;5007108;28;20231;-84
2021/03/26 01:11:26;;;;;;;33.80;23.05;;;;;;;;;;5006751;28;20259;-84
2021/03/26 01:13:57;;;;;;;37.17;25.88;;;;;;;;;;5006240;28;20286;-85
2021/03/26 01:16:28;;;;;;;29.50;22.25;;;;;;;;;;5006661;28;20574;-84
2021/03/26 01:18:55;;;;;;;31.05;24.50;;;;;;;;;;5007390;28;20255;-86
2021/03/26 01:21:27;;;;;;;29.33;24.58;;;;;;;;;;5006473;28;20258;-85
2021/03/26 01:23:54;;;;;;;27.17;21.75;;;;;;;;;;5006308;28;20245;-85
2021/03/26 01:26:23;;;;;;;28.67;21.17;;;;;;;;;;5006514;28;20620;-84
2021/03/26 01:28:50;;;;;;;26.10;21.13;;;;;;;;;;5006850;28;20190;-86
2021/03/26 01:31:20;;;;;;;25.10;21.92;;;;;;;;;;5007094;28;20239;-86
2021/03/26 01:33:48;;;;;;;26.05;22.98;;;;;;;;;;5007281;28;20294;-86
2021/03/26 01:36:16;;;;;;;29.23;22.05;;;;;;;;;;5007099;28;20203;-86
2021/03/26 01:38:45;;;;;;;29.55;22.15;;;;;;;;;;5007398;28;20294;-84
2021/03/26 01:41:17;;;;;;;31.08;24.90;;;;;;;;;;5006328;28;20255;-85
2021/03/26 01:43:45;;;;;;;30.80;22.65;;;;;;;;;;5006278;28;20761;-85
2021/03/26 01:46:14;;;;;;;29.50;25.58;;;;;;;;;;5006487;28;20263;-85
2021/03/26 01:48:48;;;;;;;29.73;24.17;;;;;;;;;;5007213;28;20184;-85
2021/03/26 01:51:19;;;;;;;30.67;24.63;;;;;;;;;;5007612;28;20227;-85
2021/03/26 01:53:47;;;;;;;34.97;25.08;;;;;;;;;;5007091;28;20263;-84
2021/03/26 01:56:15;;;;;;;28.48;23.20;;;;;;;;;;5007081;28;20215;-84
2021/03/26 01:58:44;;;;;;;32.67;24.92;;;;;;;;;;5006547;28;20283;-85
2021/03/26 02:01:14;;;;;;;24.92;20.60;;;;;;;;;;5006926;28;20251;-83
2021/03/26 02:03:43;;;;;;;28.15;20.65;;;;;;;;;;5006506;28;20283;-85
2021/03/26 02:06:16;;;;;;;29.65;21.38;;;;;;;;;;5005749;28;20259;-85
2021/03/26 02:08:44;;;;;;;22.95;20.15;;;;;;;;;;5007154;28;20249;-85
2021/03/26 02:11:24;;;;;;;26.52;21.08;;;;;;;;;;5006405;28;20385;-84
2021/03/26 02:13:55;;;;;;;24.48;19.65;;;;;;;;;;5007282;28;20200;-85
2021/03/26 02:16:24;;;;;;;28.17;21.35;;;;;;;;;;5006359;28;20718;-84
2021/03/26 02:18:52;;;;;;;34.58;22.17;;;;;;;;;;5007566;28;20275;-85
2021/03/26 02:21:25;;;;;;;24.75;18.55;;;;;;;;;;5006822;28;20266;-85
2021/03/26 02:23:54;;;;;;;24.20;19.25;;;;;;;;;;5007717;28;20611;-85
2021/03/26 02:26:27;;;;;;;26.85;20.02;;;;;;;;;;5006484;28;20240;-84
2021/03/26 02:28:55;;;;;;;23.05;19.02;;;;;;;;;;5006513;28;20211;-84
2021/03/26 02:31:23;;;;;;;23.02;18.75;;;;;;;;;;5007761;28;20311;-84
2021/03/26 02:33:51;;;;;;;25.85;20.02;;;;;;;;;;5006819;28;20264;-85
2021/03/26 02:36:44;;;;;;;23.60;19.05;;;;;;;;;;5007118;28;20200;-88
2021/03/26 02:39:25;;;;;;;21.83;19.42;;;;;;;;;;5007457;28;20267;-85
2021/03/26 02:41:57;;;;;;;21.40;19.15;;;;;;;;;;5008000;28;20275;-85
2021/03/26 02:44:33;;;;;;;24.05;19.55;;;;;;;;;;5009105;28;20254;-85
2021/03/26 02:47:11;;;;;;;27.65;20.02;;;;;;;;;;5006693;28;20290;-85
2021/03/26 02:49:44;;;;;;;22.15;17.85;;;;;;;;;;5006866;28;20219;-85
2021/03/26 02:52:19;;;;;;;23.40;19.63;;;;;;;;;;5007029;28;20195;-85
2021/03/26 02:54:54;;;;;;;24.92;20.70;;;;;;;;;;5007099;28;20188;-85
2021/03/26 02:57:29;;;;;;;20.23;17.52;;;;;;;;;;5006724;28;20616;-85
2021/03/26 03:00:01;;;;;;;23.70;18.75;;;;;;;;;;5007507;28;20234;-84
2021/03/26 03:02:30;;;;;;;23.60;19.77;;;;;;;;;;5007250;28;20208;-85
2021/03/26 03:05:06;;;;;;;25.70;19.52;;;;;;;;;;5008047;28;20187;-85
2021/03/26 03:07:37;;;;;;;23.88;19.17;;;;;;;;;;5007731;28;20672;-85
2021/03/26 03:10:19;;;;;;;24.55;19.80;;;;;;;;;;5008106;28;20215;-85
2021/03/26 03:12:51;;;;;;;22.35;18.83;;;;;;;;;;5004375;28;20286;-84
2021/03/26 03:15:25;;;;;;;22.42;18.33;;;;;;;;;;5004365;28;20214;-84
2021/03/26 03:17:58;;;;;;;24.67;19.58;;;;;;;;;;5003926;28;20229;-84
2021/03/26 03:20:31;;;;;;;26.50;21.08;;;;;;;;;;5003820;28;20322;-84
2021/03/26 03:23:03;;;;;;;27.30;20.15;;;;;;;;;;5003772;28;20207;-83
2021/03/26 03:25:32;;;;;;;25.35;21.20;;;;;;;;;;5003484;28;20180;-85
2021/03/26 03:28:18;;;;;;;25.83;18.80;;;;;;;;;;5004135;28;20227;-84
2021/03/26 03:31:00;;;;;;;34.85;21.80;;;;;;;;;;5003781;28;20231;-85
2021/03/26 03:33:34;;;;;;;34.67;24.35;;;;;;;;;;5003981;28;20206;-84
2021/03/26 03:36:13;;;;;;;25.63;20.88;;;;;;;;;;5003390;28;20282;-84
2021/03/26 03:38:54;;;;;;;33.83;23.55;;;;;;;;;;5003944;28;20246;-84
2021/03/26 03:41:31;;;;;;;32.53;25.33;;;;;;;;;;5003002;28;20270;-84
2021/03/26 03:44:05;;;;;;;30.02;21.83;;;;;;;;;;5002768;28;20274;-83
2021/03/26 03:46:40;;;;;;;30.60;22.40;;;;;;;;;;5002950;28;20223;-85
2021/03/26 03:49:12;;;;;;;28.00;21.10;;;;;;;;;;5004406;28;20180;-85
2021/03/26 03:51:44;;;;;;;32.08;23.63;;;;;;;;;;5003993;28;20616;-85
2021/03/26 03:54:17;;;;;;;28.08;20.08;;;;;;;;;;5004095;28;20267;-84
2021/03/26 03:56:50;;;;;;;26.25;20.55;;;;;;;;;;5003494;28;20219;-83
2021/03/26 03:59:24;;;;;;;30.00;23.42;;;;;;;;;;5003544;28;20274;-84
2021/03/26 04:01:56;;;;;;;26.98;21.95;;;;;;;;;;4995522;28;20186;-84
2021/03/26 04:04:27;;;;;;;28.05;22.73;;;;;;;;;;4994731;28;20234;-85
2021/03/26 04:06:59;;;;;;;28.60;21.80;;;;;;;;;;4994465;28;20223;-85
2021/03/26 04:09:32;;;;;;;31.52;23.77;;;;;;;;;;4995029;28;20200;-85
2021/03/26 04:12:05;;;;;;;32.20;25.50;;;;;;;;;;4994851;28;20200;-85
2021/03/26 04:14:36;;;;;;;32.70;26.25;;;;;;;;;;4995013;28;20618;-85
2021/03/26 04:17:06;;;;;;;31.73;23.55;;;;;;;;;;4998310;28;20188;-85
2021/03/26 04:19:38;;;;;;;29.45;22.30;;;;;;;;;;4998353;28;20204;-85
2021/03/26 04:22:10;;;;;;;28.25;23.30;;;;;;;;;;4999215;28;20187;-85
2021/03/26 04:24:42;;;;;;;31.17;22.17;;;;;;;;;;4999032;28;20681;-85
2021/03/26 04:27:16;;;;;;;30.15;24.60;;;;;;;;;;4998097;28;20191;-84
2021/03/26 04:29:48;;;;;;;30.38;22.35;;;;;;;;;;4998783;28;20238;-84
2021/03/26 04:32:18;;;;;;;30.85;23.20;;;;;;;;;;4998362;28;20319;-85
2021/03/26 04:34:45;;;;;;;31.95;24.05;;;;;;;;;;4998391;28;20227;-85
2021/03/26 04:37:19;;;;;;;29.02;23.92;;;;;;;;;;4998455;28;20181;-84
2021/03/26 04:39:54;;;;;;;30.92;22.95;;;;;;;;;;4997907;28;20310;-84
2021/03/26 04:42:29;;;;;;;31.20;25.30;;;;;;;;;;4998614;28;20326;-85
2021/03/26 04:45:04;;;;;;;35.83;26.70;;;;;;;;;;4997963;28;20207;-84
2021/03/26 04:47:39;;;;;;;35.80;26.95;;;;;;;;;;4998394;28;20191;-85
2021/03/26 04:50:12;;;;;;;30.60;24.02;;;;;;;;;;4998129;28;20227;-85
2021/03/26 04:52:44;;;;;;;31.73;23.13;;;;;;;;;;4998360;28;20213;-85
2021/03/26 04:55:16;;;;;;;31.40;24.13;;;;;;;;;;4996767;28;20278;-85
2021/03/26 04:57:50;;;;;;;32.95;25.92;;;;;;;;;;4998191;28;20258;-85
2021/03/26 05:00:22;;;;;;;33.72;25.75;;;;;;;;;;4998532;28;20311;-84
2021/03/26 05:02:56;;;;;;;33.22;23.52;;;;;;;;;;4998198;28;20291;-84
2021/03/26 05:05:24;;;;;;;34.80;22.55;;;;;;;;;;4997871;28;20720;-85
2021/03/26 05:07:57;;;;;;;32.65;24.70;;;;;;;;;;4998246;28;20239;-84
2021/03/26 05:10:26;;;;;;;32.28;24.33;;;;;;;;;;4997977;28;20219;-85
2021/03/26 05:12:58;;;;;;;32.97;23.85;;;;;;;;;;4998058;28;20203;-85
2021/03/26 05:15:28;;;;;;;31.38;23.90;;;;;;;;;;4997661;28;20737;-85
2021/03/26 05:18:02;;;;;;;35.10;25.02;;;;;;;;;;4998402;28;20217;-85
2021/03/26 05:20:33;;;;;;;35.10;24.70;;;;;;;;;;4998427;28;20240;-84
2021/03/26 05:23:04;;;;;;;27.85;22.95;;;;;;;;;;4998345;28;20199;-85
2021/03/26 05:25:35;;;;;;;31.90;23.50;;;;;;;;;;4998097;28;20767;-84
2021/03/26 05:28:11;;;;;;;28.42;22.05;;;;;;;;;;4997476;28;20187;-85
2021/03/26 05:30:42;;;;;;;36.08;24.45;;;;;;;;;;4998925;28;20223;-85
2021/03/26 05:33:15;;;;;;;30.00;24.77;;;;;;;;;;4998474;28;20210;-84
2021/03/26 05:35:51;;;;;;;33.00;24.15;;;;;;;;;;4997163;28;20254;-84
2021/03/26 05:38:22;;;;;;;29.50;23.58;;;;;;;;;;4998279;28;20188;-85
2021/03/26 05:41:28;;;;;;;28.38;24.20;;;;;;;;;;4998064;28;20248;-84
2021/03/26 05:44:34;;;;;;;29.23;23.38;;;;;;;;;;4997513;28;20227;-84
2021/03/26 05:47:28;;;;;;;35.47;24.30;;;;;;;;;;4993611;28;20207;-84
2021/03/26 05:50:18;;;;;;;35.70;25.88;;;;;;;;;;4994201;28;20315;-84
2021/03/26 05:53:16;;;;;;;29.23;21.88;;;;;;;;;;4996714;28;20230;-84
2021/03/26 05:55:52;;;;;;;33.13;23.67;;;;;;;;;;4996784;28;20262;-83
2021/03/26 05:58:43;;;;;;;33.30;24.95;;;;;;;;;;4996154;28;20199;-84
2021/03/26 06:01:34;;;;;;;33.72;24.23;;;;;;;;;;4995781;28;20232;-83
2021/03/26 06:05:00;;;;;;;36.95;26.77;;;;;;;;;;4997869;28;20547;-84
2021/03/26 06:07:50;;;;;;;33.25;26.23;;;;;;;;;;4984738;28;20206;-84
2021/03/26 06:10:38;;;;;;;38.15;27.48;;;;;;;;;;4997359;28;20786;-85
2021/03/26 06:13:47;;;;;;;31.58;22.75;;;;;;;;;;4997592;28;20196;-84
2021/03/26 06:16:33;;;;;;;34.00;24.52;;;;;;;;;;4997205;28;20199;-84
2021/03/26 06:20:15;;;;;;;34.10;25.50;;;;;;;;;;4997893;28;20306;-84
2021/03/26 06:24:01;;;;;;;35.10;25.27;;;;;;;;;;4977738;28;20216;-84
2021/03/26 06:26:39;;;;;;;34.20;25.48;;;;;;;;;;4956129;28;20291;-84
2021/03/26 06:29:18;;;;;;;33.83;27.25;;;;;;;;;;4978187;28;20290;-84
2021/03/26 06:32:46;;;;;;;34.78;26.65;;;;;;;;;;4978047;28;20223;-85
2021/03/26 06:35:43;;;;;;;34.78;25.35;;;;;;;;;;4976857;28;20239;-85
2021/03/26 06:38:51;;;;;;;33.97;24.88;;;;;;;;;;4977144;28;20258;-86
2021/03/26 06:41:30;;;;;;;31.40;24.90;;;;;;;;;;4977313;28;20287;-84
2021/03/26 06:44:45;;;;;;;32.15;23.40;;;;;;;;;;4978102;28;20206;-84
2021/03/26 06:47:17;;;;;;;34.92;24.08;;;;;;;;;;4976777;28;20204;-85
2021/03/26 06:49:56;;;;;;;34.30;24.83;;;;;;;;;;4977585;28;20227;-85
2021/03/26 06:52:48;;;;;;;32.30;24.83;;;;;;;;;;4978111;28;20224;-85
2021/03/26 06:55:35;;;;;;;29.73;23.35;;;;;;;;;;4978060;28;20224;-84
2021/03/26 06:58:40;;;;;;;33.65;25.83;;;;;;;;;;4976977;28;20196;-84
2021/03/26 07:01:34;;;;;;;30.58;24.70;;;;;;;;;;4977523;28;20643;-85
2021/03/26 07:04:50;;;;;;;31.35;23.45;;;;;;;;;;4977697;28;20291;-85
2021/03/26 07:08:07;;;;;;;28.98;21.42;;;;;;;;;;4975208;28;20206;-84
2021/03/26 07:10:53;;;;;;;24.15;18.95;;;;;;;;;;4944086;28;20224;-85
2021/03/26 07:13:59;;;;;;;29.85;22.05;;;;;;;;;;4977575;28;20206;-85
2021/03/26 07:17:22;;;;;;;30.52;23.23;;;;;;;;;;4976720;28;20228;-85
2021/03/26 07:20:28;;;;;;;28.88;23.38;;;;;;;;;;4899822;29;20313;-85
2021/03/26 07:23:47;;;;;;;30.40;21.77;;;;;;;;;;4917099;29;20210;-85
2021/03/26 07:26:34;;;;;;;26.95;19.45;;;;;;;;;;4996293;28;20595;-85
2021/03/26 07:29:29;;;;;;;30.73;23.80;;;;;;;;;;4995832;28;20323;-84
2021/03/26 07:32:24;;;;;;;29.92;23.75;;;;;;;;;;4995768;28;20250;-85
2021/03/26 07:35:39;;;;;;;28.80;22.92;;;;;;;;;;4995766;28;20290;-85
2021/03/26 07:38:47;;;;;;;23.85;20.75;;;;;;;;;;4968570;28;20290;-85
2021/03/26 07:41:37;;;;;;;25.23;19.83;;;;;;;;;;4988490;28;20249;-85
2021/03/26 07:44:20;;;;;;;24.48;20.02;;;;;;;;;;4996857;28;20304;-84
2021/03/26 07:47:03;;;;;;;28.00;20.88;;;;;;;;;;4996110;28;20639;-85
2021/03/26 07:50:05;;;;;;;21.60;17.83;;;;;;;;;;4995141;28;20231;-85
2021/03/26 07:52:39;;;;;;;21.95;16.98;;;;;;;;;;4996248;28;20203;-85
2021/03/26 07:55:20;;;;;;;21.65;17.45;;;;;;;;;;4994869;28;20204;-85
2021/03/26 07:58:21;;;;;;;23.50;19.25;;;;;;;;;;4994509;28;20203;-85
2021/03/26 08:01:03;;;;;;;24.63;16.30;;;;;;;;;;4995288;28;20224;-85
2021/03/26 08:03:49;;;;;;;22.15;17.65;;;;;;;;;;4992862;28;20761;-85
2021/03/26 08:07:08;;;;;;;18.35;15.68;;;;;;;;;;4995379;28;20577;-85
2021/03/26 08:09:54;;;;;;;23.60;18.35;;;;;;;;;;4972661;28;20204;-85
2021/03/26 08:12:34;;;;;;;22.20;16.10;;;;;;;;;;4995873;28;20226;-85
2021/03/26 08:15:25;;;;;;;21.95;17.10;;;;;;;;;;4995165;28;20822;-84
2021/03/26 08:18:05;;;;;;;19.45;16.92;;;;;;;;;;4995347;28;20204;-84
2021/03/26 08:20:36;;;;;;;19.65;17.25;;;;;;;;;;4994986;28;20607;-87
2021/03/26 08:23:26;;;;;;;23.88;18.23;;;;;;;;;;4995211;28;20203;-87
2021/03/26 08:26:02;;;;;;;21.55;17.42;;;;;;;;;;4995224;28;20603;-86
2021/03/26 08:28:43;;;;;;;19.73;16.38;;;;;;;;;;4993514;28;20247;-87
2021/03/26 08:31:46;;;;;;;20.42;16.58;;;;;;;;;;4995291;28;20224;-85
2021/03/26 08:34:33;;;;;;;19.90;15.80;;;;;;;;;;4996282;28;20211;-85
2021/03/26 08:37:08;;;;;;;21.92;14.98;;;;;;;;;;4995141;28;20200;-85
2021/03/26 08:39:40;;;;;;;18.60;14.88;;;;;;;;;;4995675;28;20203;-85
2021/03/26 08:42:22;;;;;;;28.42;19.23;;;;;;;;;;4996134;28;20265;-85
2021/03/26 08:44:54;;;;;;;27.67;21.65;;;;;;;;;;4994742;28;20204;-85
2021/03/26 08:47:28;;;;;;;30.48;22.98;;;;;;;;;;4994373;28;20222;-85
2021/03/26 08:50:24;;;;;;;21.10;18.05;;;;;;;;;;4995034;28;20219;-86
2021/03/26 08:53:39;;;;;;;20.63;17.02;;;;;;;;;;4992955;28;20228;-85
2021/03/26 08:56:21;;;;;;;19.83;17.10;;;;;;;;;;4896080;29;20788;-86
2021/03/26 08:59:33;;;;;;;17.25;15.32;;;;;;;;;;4981771;28;20204;-86
2021/03/26 09:02:48;;;;;;;16.02;14.40;;;;;;;;;;4994546;28;20200;-86
2021/03/26 09:05:52;;;;;;;15.25;13.70;;;;;;;;;;5001661;28;20214;-86
2021/03/26 09:08:48;;;;;;;15.27;13.68;;;;;;;;;;4999864;28;20218;-85
2021/03/26 09:11:53;;;;;;;14.43;12.88;;;;;;;;;;4997765;28;20224;-85
2021/03/26 09:14:46;;;;;;;16.98;15.25;;;;;;;;;;4995230;28;20569;-85
2021/03/26 09:17:20;;;;;;;19.40;14.70;;;;;;;;;;4968555;28;20208;-86
2021/03/26 09:19:51;;;;;;;16.08;13.95;;;;;;;;;;4996413;28;20227;-86
2021/03/26 09:22:39;;;;;;;24.67;18.33;;;;;;;;;;4996776;28;20277;-86
2021/03/26 09:25:32;;;;;;;19.23;17.10;;;;;;;;;;4996571;28;20282;-86
2021/03/26 09:28:02;;;;;;;17.70;15.63;;;;;;;;;;4997196;28;20208;-86
2021/03/26 09:30:33;;;;;;;24.23;14.75;;;;;;;;;;4997415;28;20251;-86
2021/03/26 09:33:13;;;;;;;18.85;15.80;;;;;;;;;;4996325;28;20268;-86
2021/03/26 09:35:48;;;;;;;16.75;15.02;;;;;;;;;;4997024;28;20223;-85
2021/03/26 09:38:26;;;;;;;18.08;15.48;;;;;;;;;;4997766;28;20190;-86
2021/03/26 09:41:07;;;;;;;18.73;15.40;;;;;;;;;;4996715;28;20222;-85
2021/03/26 09:43:45;;;;;;;16.08;13.70;;;;;;;;;;4998162;28;20204;-86
2021/03/26 09:46:19;;;;;;;16.52;13.07;;;;;;;;;;4998129;28;20431;-86
2021/03/26 09:49:07;;;;;;;15.18;12.75;;;;;;;;;;4999006;28;20261;-86
2021/03/26 09:51:51;;;;;;;13.80;12.38;;;;;;;;;;4999282;28;20228;-86
2021/03/26 09:54:30;;;;;;;17.45;11.80;;;;;;;;;;4998861;28;20215;-85
2021/03/26 09:57:19;;;;;;;14.15;9.90;;;;;;;;;;4998494;28;20207;-85
2021/03/26 10:00:08;;;;;;;10.77;8.30;;;;;;;;;;5010081;23;20228;-86
2021/03/26 10:02:38;;;;;;;11.52;8.20;;;;;;;;;;4992844;28;20251;-86
2021/03/26 10:05:14;;;;;;;11.15;9.68;;;;;;;;;;4992036;28;20189;-86
2021/03/26 10:07:47;;;;;;;8.93;8.05;;;;;;;;;;4992066;28;20207;-86
2021/03/26 10:13:14;;;;;;;10.23;8.95;;;;;;;;;;5019084;28;20258;-88
2021/03/26 10:15:44;;;;;;;8.65;7.75;;;;;;;;;;5017281;28;20559;-86
2021/03/26 10:18:15;;;;;;;6.85;6.15;;;;;;;;;;5020212;28;20214;-86
2021/03/26 10:20:49;;;;;;;8.98;7.88;;;;;;;;;;5021090;28;20857;-86
2021/03/26 10:23:35;;;;;;;10.18;7.13;;;;;;;;;;5021242;28;20222;-87
2021/03/26 10:26:12;;;;;;;8.95;6.22;;;;;;;;;;5017465;28;20232;-87
2021/03/26 10:29:03;;;;;;;6.40;5.80;;;;;;;;;;5019124;28;20187;-86
2021/03/26 10:31:48;;;;;;;6.82;6.13;;;;;;;;;;5116346;27;20499;-87
2021/03/26 10:34:18;;;;;;;7.32;6.03;;;;;;;;;;5096771;28;20188;-88
2021/03/26 10:36:54;;;;;;;10.75;7.38;;;;;;;;;;5095996;28;20268;-87
2021/03/26 10:39:27;;;;;;;9.25;6.93;;;;;;;;;;5087072;28;20220;-87
2021/03/26 10:42:11;;;;;;;8.23;7.38;;;;;;;;;;5067430;28;20280;-88
2021/03/26 10:45:02;;;;;;;7.75;6.22;;;;;;;;;;5067857;28;20193;-87
2021/03/26 10:47:33;;;;;;;7.07;6.38;;;;;;;;;;5067962;28;20197;-88
2021/03/26 10:50:04;;;;;;;6.82;6.18;;;;;;;;;;5067512;28;20228;-86
2021/03/26 10:52:37;;;;;;;6.88;6.22;;;;;;;;;;5067354;28;20438;-87
2021/03/26 10:55:10;;;;;;;7.05;6.40;;;;;;;;;;5066613;28;20197;-87
2021/03/26 10:57:41;;;;;;;7.78;6.50;;;;;;;;;;5066422;28;20793;-88
2021/03/26 11:00:22;;;;;;;8.95;6.25;;;;;;;;;;5066545;28;20221;-88
2021/03/26 11:03:01;;;;;;;7.38;6.65;;;;;;;;;;5067034;28;20283;-88
2021/03/26 11:05:47;;;;;;;7.43;6.65;;;;;;;;;;5066623;28;20235;-88
2021/03/26 11:08:43;;;;;;;8.50;7.60;;;;;;;;;;5072591;28;20195;-87
2021/03/26 11:11:36;;;;;;;7.57;5.65;;;;;;;;;;5075817;28;20217;-88
2021/03/26 11:14:40;;;;;;;9.63;7.55;;;;;;;;;;5072145;28;20190;-88
2021/03/26 11:17:29;;;;;;;6.40;5.50;;;;;;;;;;5073610;28;20219;-86
2021/03/26 11:20:22;;;;;;;7.95;6.22;;;;;;;;;;5076688;28;20282;-87
2021/03/26 11:23:00;;;;;;;9.02;7.32;;;;;;;;;;5075590;28;20193;-88
2021/03/26 11:25:34;;;;;;;8.27;7.05;;;;;;;;;;5075092;28;20193;-88
2021/03/26 11:28:02;;;;;;;6.82;6.15;;;;;;;;;;5077105;28;20240;-88
2021/03/26 11:30:46;;;;;;;8.07;6.60;;;;;;;;;;5076245;28;20312;-88
2021/03/26 11:33:48;;;;;;;6.70;6.03;;;;;;;;;;5087728;28;20235;-88
2021/03/26 11:37:03;;;;;;;11.55;8.02;;;;;;;;;;5078682;28;20192;-88
2021/03/26 11:39:36;;;;;;;10.43;6.55;;;;;;;;;;5075969;28;20217;-88
2021/03/26 11:42:49;;;;;;;8.52;6.18;;;;;;;;;;5067001;28;20189;-88
2021/03/26 11:45:34;;;;;;;8.15;6.53;;;;;;;;;;5028387;28;20626;-89
2021/03/26 11:48:15;;;;;;;6.72;6.03;;;;;;;;;;5063917;28;20189;-87
2021/03/26 11:50:55;;;;;;;6.60;5.90;;;;;;;;;;5061766;28;20228;-88
2021/03/26 11:53:48;;;;;;;6.95;6.35;;;;;;;;;;5066130;28;20194;-88
2021/03/26 11:56:45;;;;;;;9.73;6.65;;;;;;;;;;5072225;28;20220;-87
2021/03/26 12:00:04;;;;;;;6.55;5.90;;;;;;;;;;5066882;28;20201;-87
2021/03/26 12:02:44;;;;;;;7.25;6.00;;;;;;;;;;5065484;28;20193;-88
2021/03/26 12:05:32;;;;;;;7.22;5.95;;;;;;;;;;5063472;28;20288;-87
2021/03/26 12:08:08;;;;;;;6.50;5.85;;;;;;;;;;5046359;28;20209;-87
2021/03/26 12:10:40;;;;;;;8.85;6.70;;;;;;;;;;5068832;28;20227;-87
2021/03/26 12:13:16;;;;;;;7.35;6.65;;;;;;;;;;5072740;28;20181;-88
2021/03/26 12:15:47;;;;;;;6.97;6.35;;;;;;;;;;5072603;28;20315;-88
2021/03/26 12:18:18;;;;;;;7.18;6.15;;;;;;;;;;5061862;28;20197;-88
2021/03/26 12:20:46;;;;;;;5.75;5.25;;;;;;;;;;5061000;28;20267;-88
2021/03/26 12:23:33;;;;;;;7.25;5.15;;;;;;;;;;5059984;28;20270;-88
2021/03/26 12:26:20;;;;;;;6.97;6.28;;;;;;;;;;5059435;28;20230;-87
2021/03/26 12:29:15;;;;;;;6.70;5.63;;;;;;;;;;5059901;28;20554;-88
2021/03/26 12:31:51;;;;;;;6.60;5.68;;;;;;;;;;5061564;28;20232;-87
2021/03/26 12:34:31;;;;;;;5.60;4.95;;;;;;;;;;5062222;28;20185;-87
2021/03/26 12:37:04;;;;;;;6.88;5.55;;;;;;;;;;5059176;28;20239;-87
2021/03/26 12:39:36;;;;;;;8.05;6.50;;;;;;;;;;5061970;28;20217;-88
2021/03/26 12:42:08;;;;;;;7.85;6.75;;;;;;;;;;5063977;28;20590;-87
2021/03/26 12:44:39;;;;;;;6.93;5.82;;;;;;;;;;5059992;28;20223;-88
2021/03/26 12:47:29;;;;;;;7.30;6.35;;;;;;;;;;5060210;28;20182;-88
2021/03/26 12:50:09;;;;;;;6.65;5.88;;;;;;;;;;5063387;28;20308;-86
2021/03/26 12:52:56;;;;;;;7.32;5.72;;;;;;;;;;5063579;28;20570;-88
2021/03/26 12:55:36;;;;;;;6.70;6.00;;;;;;;;;;5059181;28;20198;-88
2021/03/26 12:58:53;;;;;;;7.03;6.30;;;;;;;;;;5056275;28;20190;-88
2021/03/26 13:01:23;;;;;;;5.80;5.28;;;;;;;;;;5051538;28;20597;-88
2021/03/26 13:03:59;;;;;;;5.35;4.85;;;;;;;;;;5051361;28;20209;-87
2021/03/26 13:06:33;;;;;;;7.10;6.40;;;;;;;;;;5051128;28;20296;-87
2021/03/26 13:09:19;;;;;;;8.30;6.45;;;;;;;;;;5051346;28;20185;-87
2021/03/26 13:11:49;;;;;;;6.43;5.22;;;;;;;;;;5051823;28;20229;-88
2021/03/26 13:14:22;;;;;;;6.32;5.72;;;;;;;;;;5051616;28;20201;-88
2021/03/26 13:16:52;;;;;;;12.02;8.30;;;;;;;;;;5050819;28;20545;-87
2021/03/26 13:19:33;;;;;;;8.15;6.55;;;;;;;;;;5051457;28;20221;-87
2021/03/26 13:22:10;;;;;;;6.43;5.82;;;;;;;;;;5051043;28;20567;-87
2021/03/26 13:24:45;;;;;;;6.25;5.65;;;;;;;;;;5051113;28;20205;-89
2021/03/26 13:27:44;;;;;;;9.70;7.43;;;;;;;;;;5050336;28;20243;-88
2021/03/26 13:30:24;;;;;;;6.70;6.00;;;;;;;;;;5050641;28;20229;-88
2021/03/26 13:33:34;;;;;;;7.15;5.70;;;;;;;;;;5050655;28;20202;-87
2021/03/26 13:36:07;;;;;;;6.35;5.72;;;;;;;;;;5050342;28;20254;-87
2021/03/26 13:39:22;;;;;;;8.85;6.07;;;;;;;;;;5051085;28;20252;-88
2021/03/26 13:41:58;;;;;;;6.55;5.55;;;;;;;;;;5050800;28;20178;-88
2021/03/26 13:45:01;;;;;;;6.28;5.50;;;;;;;;;;5050659;28;20276;-86
2021/03/26 13:47:44;;;;;;;6.07;5.47;;;;;;;;;;5050768;28;20564;-87
2021/03/26 13:50:29;;;;;;;6.32;4.95;;;;;;;;;;5051273;28;20222;-87
2021/03/26 13:53:33;;;;;;;5.55;5.05;;;;;;;;;;5051676;28;20199;-88
2021/03/26 13:56:11;;;;;;;6.57;5.30;;;;;;;;;;4970068;28;20291;-87
2021/03/26 13:58:48;;;;;;;6.53;5.90;;;;;;;;;;5041806;28;20228;-88
2021/03/26 14:01:25;;;;;;;5.47;4.97;;;;;;;;;;5056285;28;20217;-88
2021/03/26 14:04:13;;;;;;;6.22;5.72;;;;;;;;;;5060971;28;20304;-87
2021/03/26 14:06:46;;;;;;;6.50;5.88;;;;;;;;;;5061084;28;20197;-88
2021/03/26 14:09:24;;;;;;;6.65;5.57;;;;;;;;;;5061795;28;20332;-87
2021/03/26 14:12:00;;;;;;;5.20;4.65;;;;;;;;;;5059910;28;20701;-87
2021/03/26 14:14:41;;;;;;;6.57;4.80;;;;;;;;;;5056571;28;20198;-88
2021/03/26 14:17:17;;;;;;;5.43;4.93;;;;;;;;;;5050983;28;20209;-88
2021/03/26 14:19:55;;;;;;;4.38;3.97;;;;;;;;;;5055132;28;20209;-88
2021/03/26 14:22:24;;;;;;;5.13;4.63;;;;;;;;;;5059435;28;20198;-87
2021/03/26 14:25:04;;;;;;;4.90;4.50;;;;;;;;;;5058505;28;20196;-88
2021/03/26 14:27:43;;;;;;;5.70;5.20;;;;;;;;;;5069234;28;20700;-86
2021/03/26 14:30:18;;;;;;;5.97;4.18;;;;;;;;;;5069879;28;20229;-86
2021/03/26 14:33:07;;;;;;;4.85;4.45;;;;;;;;;;5070496;28;20704;-87
2021/03/26 14:35:39;;;;;;;7.65;5.57;;;;;;;;;;5020258;28;20208;-86
2021/03/26 14:38:30;;;;;;;5.63;4.63;;;;;;;;;;5070318;28;20208;-88
2021/03/26 14:41:28;;;;;;;7.05;4.80;;;;;;;;;;5070047;28;20243;-86
2021/03/26 14:44:08;;;;;;;4.43;3.88;;;;;;;;;;5070242;28;20185;-87
2021/03/26 14:46:54;;;;;;;6.80;4.90;;;;;;;;;;5069970;28;20177;-87
2021/03/26 14:49:45;;;;;;;5.00;3.95;;;;;;;;;;5070157;28;20312;-86
2021/03/26 14:52:26;;;;;;;5.05;4.55;;;;;;;;;;5069999;28;20274;-87
2021/03/26 14:55:03;;;;;;;4.95;4.13;;;;;;;;;;5069776;28;20203;-86
2021/03/26 14:57:36;;;;;;;4.63;4.10;;;;;;;;;;5070410;28;20181;-86
2021/03/26 15:00:31;;;;;;;4.78;4.38;;;;;;;;;;5070394;28;20628;-87
2021/03/26 15:03:15;;;;;;;6.15;4.78;;;;;;;;;;5070183;28;20563;-88
2021/03/26 15:06:05;;;;;;;5.85;4.63;;;;;;;;;;5069243;28;20190;-87
2021/03/26 15:08:47;;;;;;;8.25;5.75;;;;;;;;;;5070034;28;20189;-88
2021/03/26 15:11:23;;;;;;;5.45;4.95;;;;;;;;;;5070029;28;20247;-87
2021/03/26 15:13:54;;;;;;;7.57;5.45;;;;;;;;;;5069845;28;20689;-86
2021/03/26 15:16:25;;;;;;;5.88;4.97;;;;;;;;;;5069556;28;20177;-87
2021/03/26 15:19:05;;;;;;;5.25;4.40;;;;;;;;;;5062607;28;20189;-88
2021/03/26 15:21:48;;;;;;;5.30;4.80;;;;;;;;;;5062436;28;20200;-85
2021/03/26 15:24:50;;;;;;;6.38;4.63;;;;;;;;;;5062726;28;20593;-86
2021/03/26 15:27:41;;;;;;;7.50;4.93;;;;;;;;;;5063499;28;20177;-86
2021/03/26 15:30:24;;;;;;;6.70;4.75;;;;;;;;;;5072036;28;20237;-86
2021/03/26 15:33:00;;;;;;;7.15;5.32;;;;;;;;;;5073125;28;20588;-86
2021/03/26 15:35:35;;;;;;;6.00;5.40;;;;;;;;;;5068152;28;20195;-86
2021/03/26 15:38:14;;;;;;;4.93;4.40;;;;;;;;;;5065201;28;20295;-87
2021/03/26 15:40:47;;;;;;;4.85;4.32;;;;;;;;;;5063019;28;20209;-85
2021/03/26 15:43:23;;;;;;;6.07;4.15;;;;;;;;;;5062990;28;20665;-86
2021/03/26 15:45:55;;;;;;;4.50;3.50;;;;;;;;;;5062119;28;20265;-88
2021/03/26 15:48:37;;;;;;;5.35;4.32;;;;;;;;;;5060220;28;20624;-87